createdAt,value
2022-11-24T00:00:19.328Z,22.39
2022-11-24T00:01:19.261Z,23.20
2022-11-24T00:02:19.330Z,28.29
2022-11-24T00:03:19.361Z,23.79
2022-11-24T00:04:19.068Z,26.50
2022-11-24T00:05:19.001Z,23.20
2022-11-24T00:06:18.936Z,27.29
2022-11-24T00:07:18.897Z,21.10
2022-11-24T00:08:18.807Z,17.89
2022-11-24T00:09:18.749Z,21.00
2022-11-24T00:10:18.680Z,27.20
2022-11-24T00:11:18.611Z,24.20
2022-11-24T00:12:18.544Z,25.50
2022-11-24T00:13:18.489Z,25.29
2022-11-24T00:14:18.423Z,26.39
2022-11-24T00:15:18.358Z,25.89
2022-11-24T00:16:18.362Z,24.79
2022-11-24T00:17:18.225Z,28.50
2022-11-24T00:18:18.160Z,28.70
2022-11-24T00:19:19.860Z,30.70
2022-11-24T00:20:18.021Z,24.00
2022-11-24T00:21:17.961Z,21.70
2022-11-24T00:22:17.886Z,19.60
2022-11-24T00:23:17.821Z,23.60
2022-11-24T00:24:17.753Z,27.70
2022-11-24T00:25:17.689Z,25.79
2022-11-24T00:26:17.632Z,25.50
2022-11-24T00:27:17.562Z,24.29
2022-11-24T00:28:17.497Z,27.50
2022-11-24T00:29:17.429Z,26.79
2022-11-24T00:30:17.364Z,25.79
2022-11-24T00:31:17.873Z,23.29
2022-11-24T00:32:17.229Z,22.29
2022-11-24T00:33:17.162Z,23.29
2022-11-24T00:34:17.090Z,21.79
2022-11-24T00:35:17.048Z,24.10
2022-11-24T00:36:16.958Z,24.60
2022-11-24T00:37:16.892Z,24.20
2022-11-24T00:38:16.822Z,30.20
2022-11-24T00:39:16.752Z,24.60
2022-11-24T00:40:16.681Z,26.29
2022-11-24T00:41:16.615Z,27.60
2022-11-24T00:42:16.543Z,30.89
2022-11-24T00:43:16.475Z,28.20
2022-11-24T00:44:16.403Z,28.50
2022-11-24T00:45:16.338Z,25.00
2022-11-24T00:46:16.357Z,31.89
2022-11-24T00:47:16.330Z,22.00
2022-11-24T00:48:16.130Z,24.89
2022-11-24T00:49:16.059Z,33.09
2022-11-24T00:50:15.998Z,16.60
2022-11-24T00:51:15.955Z,26.10
2022-11-24T00:52:15.862Z,33.00
2022-11-24T00:53:15.797Z,24.39
2022-11-24T00:54:15.733Z,25.89
2022-11-24T00:55:15.664Z,20.60
2022-11-24T00:56:15.600Z,27.20
2022-11-24T00:57:15.536Z,22.10
2022-11-24T00:58:15.466Z,31.39
2022-11-24T00:59:15.399Z,21.60
2022-11-24T01:00:15.334Z,24.60
2022-11-24T01:01:15.396Z,27.20
2022-11-24T01:02:15.268Z,19.79
2022-11-24T01:03:15.139Z,25.50
2022-11-24T01:04:15.077Z,23.89
2022-11-24T01:05:14.998Z,28.89
2022-11-24T01:06:14.933Z,24.79
2022-11-24T01:07:14.936Z,23.60
2022-11-24T01:08:14.818Z,28.00
2022-11-24T01:09:14.757Z,25.29
2022-11-24T01:10:14.695Z,30.20
2022-11-24T01:11:14.626Z,30.20
2022-11-24T01:12:14.561Z,25.39
2022-11-24T01:13:14.494Z,29.10
2022-11-24T01:14:14.429Z,25.70
2022-11-24T01:15:14.357Z,25.50
2022-11-24T01:16:14.453Z,41.29
2022-11-24T01:17:14.221Z,52.50
2022-11-24T01:18:14.150Z,64.90
2022-11-24T01:19:14.077Z,65.09
2022-11-24T01:20:14.018Z,52.59
2022-11-24T01:21:13.952Z,48.09
2022-11-24T01:22:13.888Z,50.40
2022-11-24T01:23:13.844Z,42.29
2022-11-24T01:24:13.753Z,62.79
2022-11-24T01:25:13.685Z,58.00
2022-11-24T01:26:13.626Z,69.00
2022-11-24T01:27:13.551Z,29.50
2022-11-24T01:28:13.485Z,29.70
2022-11-24T01:29:13.402Z,25.29
2022-11-24T01:30:13.334Z,29.39
2022-11-24T01:31:13.379Z,17.39
2022-11-24T01:32:13.195Z,25.20
2022-11-24T01:33:13.123Z,25.39
2022-11-24T01:34:13.054Z,23.79
2022-11-24T01:35:12.988Z,28.00
2022-11-24T01:36:12.911Z,26.00
2022-11-24T01:37:12.839Z,29.70
2022-11-24T01:38:12.774Z,27.89
2022-11-24T01:39:12.723Z,32.20
2022-11-24T01:40:12.640Z,29.89
2022-11-24T01:41:12.570Z,27.79
2022-11-24T01:42:12.508Z,24.00
2022-11-24T01:43:12.441Z,25.70
2022-11-24T01:44:12.376Z,26.29
2022-11-24T01:45:12.313Z,18.29
2022-11-24T01:46:12.389Z,24.70
2022-11-24T01:47:12.180Z,17.29
2022-11-24T01:48:12.118Z,26.50
2022-11-24T01:49:12.054Z,33.00
2022-11-24T01:50:11.992Z,22.29
2022-11-24T01:51:11.927Z,30.10
2022-11-24T01:52:11.891Z,20.79
2022-11-24T01:53:11.788Z,24.10
2022-11-24T01:54:11.716Z,30.29
2022-11-24T01:55:11.680Z,23.89
2022-11-24T01:56:11.579Z,21.00
2022-11-24T01:57:11.512Z,26.29
2022-11-24T01:58:11.446Z,23.70
2022-11-24T01:59:11.375Z,25.20
2022-11-24T02:00:11.311Z,29.89
2022-11-24T02:01:11.366Z,32.00
2022-11-24T02:02:11.258Z,27.89
2022-11-24T02:03:11.104Z,25.89
2022-11-24T02:04:11.038Z,21.70
2022-11-24T02:05:10.970Z,18.20
2022-11-24T02:06:10.917Z,25.10
2022-11-24T02:07:10.859Z,29.50
2022-11-24T02:08:10.763Z,23.79
2022-11-24T02:09:10.699Z,27.79
2022-11-24T02:10:10.636Z,27.70
2022-11-24T02:11:10.614Z,21.50
2022-11-24T02:12:10.507Z,40.90
2022-11-24T02:13:10.445Z,27.20
2022-11-24T02:14:10.383Z,38.09
2022-11-24T02:15:10.317Z,48.90
2022-11-24T02:16:10.371Z,44.09
2022-11-24T02:17:10.204Z,24.79
2022-11-24T02:18:10.128Z,62.79
2022-11-24T02:19:10.060Z,55.29
2022-11-24T02:20:10.001Z,46.79
2022-11-24T02:21:09.931Z,51.29
2022-11-24T02:22:09.869Z,47.09
2022-11-24T02:23:09.811Z,63.00
2022-11-24T02:24:09.740Z,28.39
2022-11-24T02:25:09.673Z,29.00
2022-11-24T02:26:09.611Z,26.10
2022-11-24T02:27:09.576Z,24.10
2022-11-24T02:28:09.479Z,24.29
2022-11-24T02:29:09.411Z,24.50
2022-11-24T02:30:09.364Z,23.70
2022-11-24T02:31:09.396Z,19.60
2022-11-24T02:32:09.225Z,20.89
2022-11-24T02:33:09.157Z,20.10
2022-11-24T02:34:09.091Z,23.79
2022-11-24T02:35:09.035Z,22.50
2022-11-24T02:36:08.969Z,17.79
2022-11-24T02:37:08.901Z,24.39
2022-11-24T02:38:08.834Z,16.29
2022-11-24T02:39:08.767Z,24.89
2022-11-24T02:40:08.700Z,22.39
2022-11-24T02:41:08.637Z,21.50
2022-11-24T02:42:08.575Z,23.20
2022-11-24T02:43:08.533Z,20.89
2022-11-24T02:44:08.436Z,23.00
2022-11-24T02:45:08.367Z,24.10
2022-11-24T02:46:08.398Z,25.79
2022-11-24T02:47:08.238Z,22.00
2022-11-24T02:48:08.174Z,20.50
2022-11-24T02:49:08.111Z,22.89
2022-11-24T02:50:08.041Z,18.00
2022-11-24T02:51:07.975Z,23.79
2022-11-24T02:52:07.902Z,15.30
2022-11-24T02:53:07.835Z,20.39
2022-11-24T02:54:07.767Z,15.80
2022-11-24T02:55:07.694Z,19.29
2022-11-24T02:56:07.618Z,21.70
2022-11-24T02:57:07.551Z,18.89
2022-11-24T02:58:07.476Z,19.70
2022-11-24T02:59:07.428Z,15.30
2022-11-24T03:00:07.330Z,17.79
2022-11-24T03:01:07.307Z,19.10
2022-11-24T03:02:07.183Z,17.20
2022-11-24T03:03:07.200Z,22.60
2022-11-24T03:04:07.042Z,33.00
2022-11-24T03:05:06.968Z,30.20
2022-11-24T03:06:06.897Z,27.70
2022-11-24T03:07:06.942Z,21.89
2022-11-24T03:08:06.743Z,36.59
2022-11-24T03:09:06.670Z,40.90
2022-11-24T03:10:06.599Z,27.00
2022-11-24T03:11:06.531Z,29.29
2022-11-24T03:12:06.453Z,24.70
2022-11-24T03:13:06.381Z,25.50
2022-11-24T03:14:06.309Z,55.20
2022-11-24T03:15:06.268Z,41.59
2022-11-24T03:16:06.183Z,30.39
2022-11-24T03:17:06.076Z,19.89
2022-11-24T03:18:05.999Z,24.29
2022-11-24T03:19:05.925Z,18.39
2022-11-24T03:20:05.852Z,26.70
2022-11-24T03:21:05.775Z,19.79
2022-11-24T03:22:05.702Z,17.00
2022-11-24T03:23:05.627Z,24.10
2022-11-24T03:24:05.549Z,20.39
2022-11-24T03:25:05.479Z,25.50
2022-11-24T03:26:05.401Z,17.79
2022-11-24T03:27:05.325Z,18.50
2022-11-24T03:28:05.253Z,18.20
2022-11-24T03:29:05.179Z,17.79
2022-11-24T03:30:05.107Z,20.00
2022-11-24T03:31:05.123Z,16.79
2022-11-24T03:32:04.972Z,15.69
2022-11-24T03:33:04.893Z,15.50
2022-11-24T03:34:04.823Z,21.79
2022-11-24T03:35:04.750Z,18.79
2022-11-24T03:36:04.676Z,18.89
2022-11-24T03:37:04.603Z,17.60
2022-11-24T03:38:04.531Z,20.70
2022-11-24T03:39:04.449Z,23.10
2022-11-24T03:40:04.385Z,21.89
2022-11-24T03:41:04.311Z,18.29
2022-11-24T03:42:04.231Z,17.50
2022-11-24T03:43:04.154Z,19.20
2022-11-24T03:44:04.086Z,25.70
2022-11-24T03:45:29.756Z,22.20
2022-11-24T03:46:04.982Z,18.60
2022-11-24T03:47:03.886Z,21.70
2022-11-24T03:48:03.785Z,17.89
2022-11-24T03:49:03.714Z,18.79
2022-11-24T03:50:03.640Z,22.10
2022-11-24T03:51:03.577Z,21.00
2022-11-24T03:52:07.793Z,19.20
2022-11-24T03:53:03.437Z,19.79
2022-11-24T03:54:03.369Z,20.29
2022-11-24T03:55:03.293Z,20.60
2022-11-24T03:56:03.222Z,18.39
2022-11-24T03:57:03.147Z,21.20
2022-11-24T03:58:03.070Z,18.50
2022-11-24T03:59:02.996Z,12.80
2022-11-24T04:00:02.927Z,19.39
2022-11-24T04:01:02.858Z,19.39
2022-11-24T04:02:02.821Z,13.80
2022-11-24T04:03:02.805Z,18.29
2022-11-24T04:04:02.638Z,20.00
2022-11-24T04:05:02.562Z,19.89
2022-11-24T04:06:02.493Z,19.10
2022-11-24T04:07:02.428Z,18.60
2022-11-24T04:08:02.360Z,17.50
2022-11-24T04:09:02.289Z,15.80
2022-11-24T04:10:02.218Z,17.39
2022-11-24T04:11:02.146Z,17.60
2022-11-24T04:12:02.072Z,20.29
2022-11-24T04:13:02.001Z,17.79
2022-11-24T04:14:01.931Z,21.79
2022-11-24T04:15:01.867Z,15.60
2022-11-24T04:16:01.853Z,27.00
2022-11-24T04:17:01.698Z,14.89
2022-11-24T04:18:01.619Z,16.50
2022-11-24T04:19:01.568Z,18.29
2022-11-24T04:20:01.471Z,16.70
2022-11-24T04:21:01.392Z,17.79
2022-11-24T04:22:01.311Z,21.39
2022-11-24T04:23:01.238Z,24.29
2022-11-24T04:24:01.172Z,19.50
2022-11-24T04:25:01.100Z,16.70
2022-11-24T04:26:01.030Z,15.39
2022-11-24T04:27:00.952Z,23.79
2022-11-24T04:28:00.876Z,23.89
2022-11-24T04:29:00.800Z,21.39
2022-11-24T04:30:00.728Z,20.00
2022-11-24T04:31:00.710Z,19.70
2022-11-24T04:32:00.574Z,19.29
2022-11-24T04:33:00.493Z,17.50
2022-11-24T04:34:00.413Z,18.10
2022-11-24T04:35:00.357Z,20.50
2022-11-24T04:36:00.251Z,14.39
2022-11-24T04:37:00.182Z,18.70
2022-11-24T04:38:00.104Z,16.50
2022-11-24T04:39:25.522Z,22.70
2022-11-24T04:40:00.956Z,19.10
2022-11-24T04:40:59.857Z,18.50
2022-11-24T04:41:59.775Z,22.29
2022-11-24T04:42:59.689Z,19.50
2022-11-24T04:43:59.608Z,19.79
2022-11-24T04:44:59.522Z,22.10
2022-11-24T04:45:59.442Z,19.89
2022-11-24T04:46:59.409Z,19.20
2022-11-24T04:47:59.274Z,27.79
2022-11-24T04:48:59.193Z,24.00
2022-11-24T04:49:59.110Z,25.29
2022-11-24T04:50:59.048Z,21.70
2022-11-24T04:51:58.932Z,24.50
2022-11-24T04:52:58.844Z,24.79
2022-11-24T04:53:58.761Z,29.00
2022-11-24T04:54:58.677Z,24.79
2022-11-24T04:55:58.594Z,22.70
2022-11-24T04:56:58.513Z,22.60
2022-11-24T04:57:58.431Z,20.10
2022-11-24T04:58:58.352Z,16.29
2022-11-24T04:59:58.268Z,18.00
2022-11-24T05:00:58.183Z,12.89
2022-11-24T05:01:58.157Z,27.79
2022-11-24T05:02:58.014Z,29.79
2022-11-24T05:03:57.990Z,21.70
2022-11-24T05:04:57.842Z,19.00
2022-11-24T05:05:57.758Z,25.39
2022-11-24T05:06:57.696Z,22.29
2022-11-24T05:07:57.631Z,38.70
2022-11-24T05:08:57.513Z,33.50
2022-11-24T05:09:59.666Z,46.90
2022-11-24T05:10:57.343Z,33.59
2022-11-24T05:11:57.263Z,44.79
2022-11-24T05:12:57.183Z,26.29
2022-11-24T05:13:57.106Z,19.10
2022-11-24T05:14:57.027Z,26.70
2022-11-24T05:15:56.995Z,24.79
2022-11-24T05:16:56.860Z,25.00
2022-11-24T05:17:56.776Z,21.89
2022-11-24T05:18:56.689Z,24.00
2022-11-24T05:19:56.600Z,21.70
2022-11-24T05:20:56.511Z,22.00
2022-11-24T05:21:56.431Z,20.50
2022-11-24T05:22:56.373Z,22.10
2022-11-24T05:23:56.263Z,19.50
2022-11-24T05:24:56.178Z,26.29
2022-11-24T05:25:56.091Z,31.39
2022-11-24T05:26:56.012Z,35.90
2022-11-24T05:27:55.933Z,35.79
2022-11-24T05:28:55.852Z,28.20
2022-11-24T05:29:55.768Z,28.00
2022-11-24T05:30:55.721Z,18.50
2022-11-24T05:31:55.603Z,31.00
2022-11-24T05:32:55.514Z,21.10
2022-11-24T05:33:55.427Z,38.09
2022-11-24T05:34:55.340Z,31.50
2022-11-24T05:35:55.256Z,32.59
2022-11-24T05:36:55.172Z,29.20
2022-11-24T05:37:55.087Z,31.50
2022-11-24T05:38:55.028Z,34.90
2022-11-24T05:39:54.917Z,24.70
2022-11-24T05:40:54.830Z,20.00
2022-11-24T05:41:54.739Z,22.79
2022-11-24T05:42:54.647Z,28.20
2022-11-24T05:43:54.556Z,22.60
2022-11-24T05:44:54.467Z,25.60
2022-11-24T05:45:54.378Z,26.20
2022-11-24T05:46:54.350Z,19.50
2022-11-24T05:47:54.200Z,38.59
2022-11-24T05:48:54.102Z,21.79
2022-11-24T05:49:54.012Z,37.00
2022-11-24T05:50:53.928Z,20.50
2022-11-24T05:51:53.833Z,27.79
2022-11-24T05:52:53.747Z,35.79
2022-11-24T05:53:53.660Z,27.00
2022-11-24T05:54:53.590Z,27.29
2022-11-24T05:55:53.477Z,38.20
2022-11-24T05:56:53.387Z,40.90
2022-11-24T05:57:53.305Z,37.20
2022-11-24T05:58:53.221Z,33.90
2022-11-24T05:59:53.137Z,28.60
2022-11-24T06:00:53.052Z,38.29
2022-11-24T06:01:53.077Z,43.59
2022-11-24T06:02:52.942Z,35.59
2022-11-24T06:03:52.797Z,44.09
2022-11-24T06:04:52.711Z,35.09
2022-11-24T06:05:52.623Z,32.79
2022-11-24T06:06:52.535Z,44.40
2022-11-24T06:07:52.574Z,53.09
2022-11-24T06:08:52.371Z,31.29
2022-11-24T06:09:52.291Z,34.40
2022-11-24T06:10:52.236Z,35.00
2022-11-24T06:11:52.126Z,29.20
2022-11-24T06:12:52.038Z,39.20
2022-11-24T06:13:51.981Z,34.90
2022-11-24T06:14:51.877Z,29.20
2022-11-24T06:15:51.803Z,27.50
2022-11-24T06:16:51.802Z,34.40
2022-11-24T06:17:51.634Z,30.50
2022-11-24T06:18:51.549Z,27.89
2022-11-24T06:19:51.462Z,31.89
2022-11-24T06:21:09.819Z,25.29
2022-11-24T06:21:52.287Z,35.40
2022-11-24T06:22:51.186Z,34.59
2022-11-24T06:23:51.094Z,30.39
2022-11-24T06:24:51.001Z,34.40
2022-11-24T06:25:51.705Z,33.40
2022-11-24T06:26:50.853Z,44.00
2022-11-24T06:27:50.732Z,29.20
2022-11-24T06:28:50.647Z,27.79
2022-11-24T06:29:50.557Z,24.70
2022-11-24T06:30:50.464Z,32.20
2022-11-24T06:31:50.391Z,33.29
2022-11-24T06:32:50.285Z,39.79
2022-11-24T06:33:50.203Z,33.59
2022-11-24T06:34:50.124Z,30.29
2022-11-24T06:35:50.041Z,32.40
2022-11-24T06:36:49.957Z,31.39
2022-11-24T06:37:49.872Z,32.29
2022-11-24T06:38:49.786Z,30.79
2022-11-24T06:39:49.700Z,32.90
2022-11-24T06:40:49.617Z,24.50
2022-11-24T06:41:49.534Z,22.00
2022-11-24T06:42:49.480Z,30.50
2022-11-24T06:43:49.362Z,33.29
2022-11-24T06:44:49.275Z,27.60
2022-11-24T06:45:49.240Z,25.29
2022-11-24T06:46:49.098Z,26.60
2022-11-24T06:47:49.012Z,32.29
2022-11-24T06:48:48.923Z,19.20
2022-11-24T06:49:48.845Z,22.20
2022-11-24T06:50:48.747Z,25.70
2022-11-24T06:51:48.664Z,21.70
2022-11-24T06:52:48.578Z,29.20
2022-11-24T06:53:48.492Z,26.10
2022-11-24T06:54:48.400Z,24.10
2022-11-24T06:55:48.330Z,23.89
2022-11-24T06:56:48.221Z,27.50
2022-11-24T06:57:48.129Z,26.10
2022-11-24T06:58:48.065Z,29.60
2022-11-24T06:59:47.949Z,28.70
2022-11-24T07:00:47.876Z,30.89
2022-11-24T07:01:47.766Z,22.60
2022-11-24T07:02:47.697Z,34.90
2022-11-24T07:03:47.590Z,26.29
2022-11-24T07:04:47.492Z,25.00
2022-11-24T07:05:47.401Z,27.89
2022-11-24T07:06:47.309Z,30.29
2022-11-24T07:07:47.271Z,27.89
2022-11-24T07:08:47.122Z,28.50
2022-11-24T07:09:47.039Z,29.39
2022-11-24T07:10:46.932Z,26.20
2022-11-24T07:11:46.830Z,27.89
2022-11-24T07:12:46.731Z,28.39
2022-11-24T07:13:46.630Z,27.20
2022-11-24T07:14:46.561Z,27.50
2022-11-24T07:15:46.432Z,26.50
2022-11-24T07:16:46.387Z,37.20
2022-11-24T07:17:46.237Z,46.59
2022-11-24T07:18:46.142Z,30.20
2022-11-24T07:19:46.044Z,26.50
2022-11-24T07:20:45.952Z,48.20
2022-11-24T07:21:45.855Z,32.09
2022-11-24T07:22:45.761Z,32.50
2022-11-24T07:23:45.667Z,44.59
2022-11-24T07:24:45.578Z,32.90
2022-11-24T07:25:45.476Z,27.70
2022-11-24T07:26:45.382Z,31.20
2022-11-24T07:27:45.290Z,23.70
2022-11-24T07:28:45.194Z,36.50
2022-11-24T07:29:45.101Z,32.59
2022-11-24T07:30:45.029Z,33.09
2022-11-24T07:31:44.960Z,30.39
2022-11-24T07:32:44.821Z,36.29
2022-11-24T07:33:44.730Z,39.09
2022-11-24T07:34:44.640Z,37.09
2022-11-24T07:35:44.553Z,38.00
2022-11-24T07:36:44.463Z,41.50
2022-11-24T07:37:44.365Z,55.40
2022-11-24T07:38:44.276Z,79.09
2022-11-24T07:39:44.189Z,55.20
2022-11-24T07:40:44.096Z,55.20
2022-11-24T07:41:44.001Z,58.00
2022-11-24T07:42:43.909Z,60.90
2022-11-24T07:43:43.817Z,82.00
2022-11-24T07:44:43.721Z,64.69
2022-11-24T07:45:43.702Z,55.59
2022-11-24T07:46:43.565Z,57.59
2022-11-24T07:47:43.438Z,79.00
2022-11-24T07:48:43.348Z,75.59
2022-11-24T07:49:43.255Z,79.90
2022-11-24T07:50:43.168Z,86.30
2022-11-24T07:51:43.076Z,68.90
2022-11-24T07:52:42.982Z,40.79
2022-11-24T07:53:42.886Z,52.59
2022-11-24T07:54:42.801Z,52.50
2022-11-24T07:55:42.708Z,71.40
2022-11-24T07:56:42.618Z,85.40
2022-11-24T07:57:42.524Z,98.00
2022-11-24T07:58:42.432Z,91.40
2022-11-24T07:59:42.353Z,76.00
2022-11-24T08:00:42.236Z,66.00
2022-11-24T08:01:42.167Z,81.19
2022-11-24T08:02:42.083Z,64.40
2022-11-24T08:03:42.055Z,72.40
2022-11-24T08:04:41.870Z,94.19
2022-11-24T08:06:07.713Z,71.19
2022-11-24T08:06:47.166Z,55.20
2022-11-24T08:07:41.632Z,56.59
2022-11-24T08:08:41.496Z,66.50
2022-11-24T08:09:41.407Z,70.59
2022-11-24T08:10:41.316Z,57.90
2022-11-24T08:11:41.237Z,59.50
2022-11-24T08:12:43.755Z,70.90
2022-11-24T08:13:41.033Z,59.50
2022-11-24T08:14:40.935Z,68.80
2022-11-24T08:15:40.844Z,62.09
2022-11-24T08:16:40.813Z,58.79
2022-11-24T08:17:40.644Z,67.50
2022-11-24T08:18:40.577Z,77.90
2022-11-24T08:19:40.460Z,61.29
2022-11-24T08:20:40.361Z,74.00
2022-11-24T08:21:40.269Z,73.40
2022-11-24T08:22:40.177Z,64.09
2022-11-24T08:23:40.085Z,67.50
2022-11-24T08:24:39.997Z,62.50
2022-11-24T08:25:39.904Z,56.90
2022-11-24T08:26:39.812Z,55.40
2022-11-24T08:27:39.719Z,60.20
2022-11-24T08:28:39.619Z,67.80
2022-11-24T08:29:39.532Z,47.50
2022-11-24T08:30:39.447Z,48.09
2022-11-24T08:31:39.458Z,46.90
2022-11-24T08:32:39.245Z,53.20
2022-11-24T08:33:39.149Z,55.50
2022-11-24T08:34:39.098Z,52.90
2022-11-24T08:35:38.952Z,53.40
2022-11-24T08:36:38.855Z,53.20
2022-11-24T08:37:38.755Z,45.70
2022-11-24T08:38:38.658Z,52.90
2022-11-24T08:39:38.562Z,68.80
2022-11-24T08:40:38.466Z,59.90
2022-11-24T08:41:38.371Z,51.79
2022-11-24T08:42:38.287Z,48.09
2022-11-24T08:43:38.184Z,48.00
2022-11-24T08:44:38.089Z,46.59
2022-11-24T08:45:41.369Z,47.50
2022-11-24T08:46:37.893Z,46.90
2022-11-24T08:47:37.797Z,49.70
2022-11-24T08:48:37.703Z,51.00
2022-11-24T08:49:37.600Z,48.79
2022-11-24T08:50:37.581Z,41.79
2022-11-24T08:51:37.407Z,45.00
2022-11-24T08:52:37.307Z,37.29
2022-11-24T08:53:37.214Z,36.70
2022-11-24T08:54:37.417Z,35.20
2022-11-24T08:55:37.018Z,37.40
2022-11-24T08:56:36.921Z,27.89
2022-11-24T08:57:36.828Z,36.90
2022-11-24T08:58:36.882Z,38.90
2022-11-24T08:59:36.630Z,29.89
2022-11-24T09:00:36.534Z,37.20
2022-11-24T09:01:36.647Z,31.39
2022-11-24T09:02:36.340Z,31.39
2022-11-24T09:03:36.242Z,27.39
2022-11-24T09:04:36.400Z,24.20
2022-11-24T09:05:52.806Z,26.50
2022-11-24T09:06:36.988Z,31.89
2022-11-24T09:07:35.971Z,31.29
2022-11-24T09:08:35.747Z,27.89
2022-11-24T09:09:35.645Z,28.79
2022-11-24T09:10:35.550Z,36.59
2022-11-24T09:11:35.538Z,33.09
2022-11-24T09:12:35.353Z,31.70
2022-11-24T09:13:35.258Z,28.79
2022-11-24T09:14:35.473Z,36.59
2022-11-24T09:15:35.060Z,28.20
2022-11-24T09:16:35.011Z,26.79
2022-11-24T09:17:34.869Z,25.50
2022-11-24T09:18:34.769Z,26.29
2022-11-24T09:19:34.974Z,25.79
2022-11-24T09:20:34.581Z,22.50
2022-11-24T09:21:34.631Z,15.60
2022-11-24T09:22:34.417Z,18.79
2022-11-24T09:23:34.276Z,18.60
2022-11-24T09:24:34.177Z,19.89
2022-11-24T09:25:34.073Z,17.10
2022-11-24T09:26:33.980Z,19.10
2022-11-24T09:27:33.883Z,19.29
2022-11-24T09:28:33.789Z,17.50
2022-11-24T09:29:34.040Z,24.89
2022-11-24T09:30:33.667Z,23.29
2022-11-24T09:31:33.564Z,19.89
2022-11-24T09:32:33.406Z,20.29
2022-11-24T09:33:33.311Z,17.60
2022-11-24T09:34:33.218Z,24.20
2022-11-24T09:35:33.119Z,19.79
2022-11-24T09:36:33.018Z,17.29
2022-11-24T09:37:33.081Z,21.10
2022-11-24T09:38:32.854Z,19.89
2022-11-24T09:39:33.126Z,22.89
2022-11-24T09:40:32.640Z,19.10
2022-11-24T09:41:32.536Z,22.79
2022-11-24T09:42:32.433Z,22.10
2022-11-24T09:43:32.327Z,23.00
2022-11-24T09:44:32.236Z,22.50
2022-11-24T09:45:57.473Z,25.60
2022-11-24T09:46:33.071Z,19.00
2022-11-24T09:47:31.922Z,24.79
2022-11-24T09:48:31.823Z,24.20
2022-11-24T09:49:32.068Z,24.89
2022-11-24T09:50:31.627Z,26.60
2022-11-24T09:51:31.528Z,25.20
2022-11-24T09:52:31.435Z,22.00
2022-11-24T09:53:31.335Z,22.00
2022-11-24T09:54:31.260Z,27.79
2022-11-24T09:55:31.137Z,20.79
2022-11-24T09:56:31.042Z,28.39
2022-11-24T09:57:36.942Z,28.79
2022-11-24T09:58:31.861Z,26.29
2022-11-24T09:59:30.753Z,30.89
2022-11-24T10:00:30.655Z,28.39
2022-11-24T10:01:30.687Z,27.00
2022-11-24T10:02:30.460Z,32.70
2022-11-24T10:03:30.366Z,31.20
2022-11-24T10:04:30.306Z,28.29
2022-11-24T10:05:30.180Z,30.70
2022-11-24T10:06:30.086Z,26.70
2022-11-24T10:07:30.111Z,39.09
2022-11-24T10:08:29.905Z,34.79
2022-11-24T10:09:29.814Z,33.90
2022-11-24T10:10:29.951Z,31.60
2022-11-24T10:11:29.631Z,35.00
2022-11-24T10:12:29.557Z,30.10
2022-11-24T10:13:29.450Z,36.50
2022-11-24T10:14:29.358Z,26.20
2022-11-24T10:15:29.325Z,36.79
2022-11-24T10:16:29.265Z,27.60
2022-11-24T10:17:29.074Z,43.09
2022-11-24T10:18:28.980Z,30.60
2022-11-24T10:19:36.339Z,38.40
2022-11-24T10:20:29.794Z,32.29
2022-11-24T10:21:28.686Z,25.20
2022-11-24T10:22:28.586Z,30.29
2022-11-24T10:23:28.489Z,34.09
2022-11-24T10:24:28.393Z,29.79
2022-11-24T10:25:28.296Z,34.70
2022-11-24T10:26:28.230Z,25.00
2022-11-24T10:27:28.101Z,41.00
2022-11-24T10:28:27.995Z,30.29
2022-11-24T10:29:27.888Z,33.20
2022-11-24T10:30:27.796Z,32.90
2022-11-24T10:31:27.770Z,31.79
2022-11-24T10:32:27.593Z,40.90
2022-11-24T10:33:30.867Z,32.29
2022-11-24T10:34:27.394Z,35.29
2022-11-24T10:35:27.296Z,33.79
2022-11-24T10:36:27.198Z,32.59
2022-11-24T10:37:27.104Z,31.60
2022-11-24T10:38:27.012Z,34.90
2022-11-24T10:39:26.915Z,34.09
2022-11-24T10:40:49.234Z,40.79
2022-11-24T10:41:27.755Z,33.70
2022-11-24T10:42:26.683Z,42.79
2022-11-24T10:43:26.562Z,34.00
2022-11-24T10:44:26.470Z,35.00
2022-11-24T10:45:26.367Z,38.90
2022-11-24T10:46:26.301Z,36.50
2022-11-24T10:47:26.140Z,32.59
2022-11-24T10:48:26.021Z,33.09
2022-11-24T10:49:25.901Z,25.60
2022-11-24T10:50:25.784Z,29.70
2022-11-24T10:51:25.668Z,28.20
2022-11-24T10:52:25.551Z,29.89
2022-11-24T10:53:25.437Z,30.29
2022-11-24T10:54:25.320Z,26.29
2022-11-24T10:55:25.205Z,21.39
2022-11-24T10:56:25.090Z,26.50
2022-11-24T10:57:24.976Z,22.60
2022-11-24T10:58:24.883Z,21.10
2022-11-24T10:59:24.739Z,20.60
2022-11-24T11:00:24.617Z,17.79
2022-11-24T11:01:24.546Z,23.10
2022-11-24T11:02:24.503Z,22.29
2022-11-24T11:03:24.253Z,23.50
2022-11-24T11:04:24.136Z,20.00
2022-11-24T11:05:24.012Z,26.10
2022-11-24T11:06:23.892Z,15.19
2022-11-24T11:07:24.021Z,16.60
2022-11-24T11:08:23.676Z,14.30
2022-11-24T11:09:23.536Z,21.50
2022-11-24T11:10:23.416Z,19.00
2022-11-24T11:11:23.297Z,17.29
2022-11-24T11:13:24.061Z,17.00
2022-11-24T11:14:22.949Z,16.29
2022-11-24T11:15:22.805Z,13.19
2022-11-24T11:16:22.806Z,16.89
2022-11-24T11:17:22.558Z,12.00
2022-11-24T11:18:22.435Z,17.70
2022-11-24T11:19:47.370Z,13.00
2022-11-24T11:20:23.199Z,12.69
2022-11-24T11:21:22.062Z,15.89
2022-11-24T11:22:21.935Z,14.19
2022-11-24T11:23:21.806Z,12.50
2022-11-24T11:24:21.681Z,12.80
2022-11-24T11:25:21.551Z,9.39
2022-11-24T11:26:21.426Z,14.60
2022-11-24T11:27:21.295Z,11.30
2022-11-24T11:28:21.167Z,9.89
2022-11-24T11:31:22.945Z,17.29
2022-11-24T11:34:25.275Z,13.69
2022-11-24T11:35:21.288Z,10.39
2022-11-24T11:36:20.149Z,12.89
2022-11-24T11:37:20.019Z,12.39
2022-11-24T11:38:19.894Z,9.89
2022-11-24T11:39:19.768Z,13.19
2022-11-24T11:40:19.645Z,9.50
2022-11-24T11:41:19.516Z,11.39
2022-11-24T11:42:45.185Z,14.50
2022-11-24T11:43:20.275Z,12.50
2022-11-24T11:44:19.137Z,10.10
2022-11-24T11:45:19.049Z,11.69
2022-11-24T11:46:19.072Z,16.50
2022-11-24T11:47:18.756Z,13.89
2022-11-24T11:48:18.627Z,11.50
2022-11-24T11:49:18.497Z,10.19
2022-11-24T11:50:18.456Z,12.60
2022-11-24T11:51:25.577Z,12.00
2022-11-24T11:52:19.114Z,12.19
2022-11-24T11:53:17.975Z,7.59
2022-11-24T11:54:17.839Z,8.69
2022-11-24T11:55:17.706Z,7.90
2022-11-24T11:56:17.567Z,11.60
2022-11-24T11:57:17.432Z,13.10
2022-11-24T11:58:17.278Z,9.19
2022-11-24T11:59:17.125Z,9.19
2022-11-24T12:00:16.985Z,10.30
2022-11-24T12:01:16.843Z,11.00
2022-11-24T12:02:16.828Z,11.39
2022-11-24T12:03:16.708Z,9.19
2022-11-24T12:04:16.568Z,14.30
2022-11-24T12:05:16.289Z,11.89
2022-11-24T12:06:16.162Z,13.10
2022-11-24T12:07:16.065Z,10.00
2022-11-24T12:08:20.703Z,13.30
2022-11-24T12:09:20.697Z,11.00
2022-11-24T12:10:15.641Z,12.30
2022-11-24T12:11:15.516Z,8.19
2022-11-24T12:12:15.394Z,10.30
2022-11-24T12:13:15.276Z,12.19
2022-11-24T12:14:15.163Z,10.30
2022-11-24T12:15:15.035Z,13.50
2022-11-24T12:16:14.948Z,11.60
2022-11-24T12:17:14.787Z,7.90
2022-11-24T12:18:33.477Z,12.80
2022-11-24T12:19:15.550Z,9.39
2022-11-24T12:20:14.412Z,15.19
2022-11-24T12:21:14.288Z,11.50
2022-11-24T12:22:14.164Z,6.50
2022-11-24T12:23:14.045Z,9.89
2022-11-24T12:24:13.963Z,10.00
2022-11-24T12:25:13.792Z,12.39
2022-11-24T12:26:13.664Z,10.00
2022-11-24T12:27:16.742Z,15.30
2022-11-24T12:28:14.425Z,10.50
2022-11-24T12:29:13.286Z,10.69
2022-11-24T12:30:13.302Z,10.89
2022-11-24T12:31:13.086Z,13.69
2022-11-24T12:32:12.902Z,10.80
2022-11-24T12:33:12.773Z,13.19
2022-11-24T12:34:12.669Z,11.10
2022-11-24T12:35:12.518Z,8.50
2022-11-24T12:36:12.396Z,8.89
2022-11-24T12:37:12.270Z,10.60
2022-11-24T12:38:12.144Z,14.50
2022-11-24T12:39:12.025Z,11.69
2022-11-24T12:40:11.887Z,13.30
2022-11-24T12:41:40.657Z,7.50
2022-11-24T12:42:11.637Z,10.89
2022-11-24T12:43:11.508Z,8.60
2022-11-24T12:44:11.382Z,9.10
2022-11-24T12:45:11.254Z,7.50
2022-11-24T12:46:16.882Z,15.69
2022-11-24T12:47:11.061Z,13.60
2022-11-24T12:48:10.818Z,12.00
2022-11-24T12:49:10.665Z,9.60
2022-11-24T12:50:10.582Z,10.19
2022-11-24T12:51:10.310Z,11.50
2022-11-24T12:52:10.128Z,9.60
2022-11-24T12:53:09.943Z,10.19
2022-11-24T12:54:09.759Z,10.10
2022-11-24T12:55:09.571Z,9.69
2022-11-24T12:56:09.378Z,9.10
2022-11-24T12:57:09.183Z,7.80